»·PEaware :: N1422E KBUR-KLAS

N1422E :: KBUR-KLAS

FLIGHT INFORMATION

Flight Status: Arrived
Operator: Privately registered:
United States
More flights under this callsign
Pilot: Jonathan B. (787)
Aircraft: ECLIPSE 500
(EA50)
More flights by this aircraft type
Origin: KBUR Bob Hope-Burbank
United States
Destination: KLAS McCarran Intl
United States
More flights between these airports :: More routes between these airports
Route: +SLAPP1 MISEN KEPEC6
File this flight plan on PilotEdge
Remarks: none
Altitude:
(Current/Filed)
23,000ft
Speed:
(Current/Filed)
290kts
Departed: 15-Feb-20 02:10 PM
Arrived: 15-Feb-20 03:12 PM
Distance/Time
Traveled:
193nm/1:02
Distance/Time
To Go:
Arrived

Flight Plot

Page will automatically refresh every two minutes.

Flight plan parsing failed; only flown route is shown


Map Options




Map Legend


Flown Route
Filed Route
Departure Airport
Arrival Airport
Navaid (VOR, NDB)
Fix

Horizontal Profiles

Position Reports

Time Latitude Longitude Heading Altitude Ground
Speed
15-Feb-20 13:34 34.200216 -118.358843 258 779ft 0kts
15-Feb-20 13:35 34.200216 -118.358843 258 779ft 0kts
15-Feb-20 13:36 34.200216 -118.358843 258 779ft 0kts
15-Feb-20 13:37 34.200216 -118.358843 258 779ft 0kts
15-Feb-20 13:38 34.200216 -118.358843 258 779ft 0kts
15-Feb-20 13:39 34.200216 -118.358843 258 779ft 0kts
15-Feb-20 13:40 34.200216 -118.358843 258 779ft 0kts
15-Feb-20 13:41 34.200216 -118.358843 258 779ft 0kts
15-Feb-20 13:42 34.200216 -118.358843 258 779ft 0kts
15-Feb-20 13:43 34.200216 -118.358843 258 779ft 0kts
15-Feb-20 13:44 34.200216 -118.358843 258 779ft 0kts
15-Feb-20 13:45 34.200216 -118.358843 258 779ft 0kts
15-Feb-20 13:46 34.200216 -118.358843 258 779ft 0kts
15-Feb-20 13:47 34.200216 -118.358843 258 779ft 0kts
15-Feb-20 13:48 34.200216 -118.358843 258 779ft 0kts
15-Feb-20 13:49 34.200216 -118.358843 258 779ft 0kts
15-Feb-20 13:50 34.200216 -118.358843 258 779ft 0kts
15-Feb-20 13:51 34.200216 -118.358843 258 779ft 0kts
15-Feb-20 13:52 34.200216 -118.358843 258 779ft 0kts
15-Feb-20 13:53 34.200216 -118.358843 258 779ft 0kts
15-Feb-20 13:54 34.200216 -118.358843 258 779ft 0kts
15-Feb-20 13:55 34.200216 -118.358843 258 779ft 0kts
15-Feb-20 13:56 34.200216 -118.358843 258 779ft 0kts
15-Feb-20 13:57 34.200216 -118.358843 258 779ft 0kts
15-Feb-20 13:58 34.200216 -118.358843 258 779ft 0kts
15-Feb-20 13:59 34.200216 -118.358843 258 779ft 0kts
15-Feb-20 14:00 34.200216 -118.358843 258 779ft 0kts
15-Feb-20 14:01 34.200216 -118.358843 258 779ft 0kts
15-Feb-20 14:02 34.200431 -118.358810 350 779ft 0kts
15-Feb-20 14:03 34.200839 -118.358903 351 779ft 6kts
15-Feb-20 14:04 34.202456 -118.358894 347 779ft 9kts
15-Feb-20 14:05 34.204601 -118.359499 346 779ft 7kts
15-Feb-20 14:07 34.207737 -118.360351 346 779ft 11kts
15-Feb-20 14:08 34.210462 -118.361119 345 779ft 10kts
15-Feb-20 14:09 34.211752 -118.361273 63 779ft 0kts
15-Feb-20 14:10 34.203454 -118.357955 164 980ft 110kts
15-Feb-20 14:11 34.169926 -118.372507 221 3645ft 153kts
15-Feb-20 14:12 34.140630 -118.419642 286 5482ft 203kts
15-Feb-20 14:13 34.176349 -118.437863 346 8165ft 142kts
15-Feb-20 14:14 34.225213 -118.445420 346 9051ft 226kts
15-Feb-20 14:15 34.297733 -118.459016 352 9031ft 299kts
15-Feb-20 14:16 34.373247 -118.445262 35 11452ft 263kts
15-Feb-20 14:17 34.414341 -118.379328 36 14351ft 213kts
15-Feb-20 14:18 34.453611 -118.335849 35 16669ft 187kts
15-Feb-20 14:19 34.496209 -118.297585 28 18404ft 182kts
15-Feb-20 14:20 34.529616 -118.254422 28 18974ft 231kts
15-Feb-20 14:21 34.579750 -118.215489 32 20100ft 237kts
15-Feb-20 14:22 34.626898 -118.169129 32 22268ft 197kts
15-Feb-20 14:23 34.666479 -118.125524 59 23179ft 224kts
15-Feb-20 14:24 34.680826 -118.041981 70 23192ft 273kts
15-Feb-20 14:25 34.693539 -117.945770 77 23191ft 302kts
15-Feb-20 14:26 34.700346 -117.841341 78 23174ft 316kts
15-Feb-20 14:26 34.705665 -117.751559 80 23168ft 324kts
15-Feb-20 14:28 34.710722 -117.622851 80 23171ft 328kts
15-Feb-20 14:29 34.715125 -117.512026 76 23184ft 327kts
15-Feb-20 14:29 34.737167 -117.425571 65 23182ft 320kts
15-Feb-20 14:30 34.764243 -117.323763 65 23188ft 312kts
15-Feb-20 14:31 34.790642 -117.224095 65 23188ft 308kts
15-Feb-20 14:33 34.821108 -117.108551 65 23187ft 307kts
15-Feb-20 14:33 34.842689 -117.026290 65 23189ft 307kts
15-Feb-20 14:34 34.868897 -116.926729 64 23191ft 310kts
15-Feb-20 14:35 34.894998 -116.826151 64 23189ft 314kts
15-Feb-20 14:36 34.922384 -116.724781 52 23211ft 308kts
15-Feb-20 14:37 34.970675 -116.639443 47 23184ft 308kts
15-Feb-20 14:38 35.019630 -116.552888 47 22623ft 319kts
15-Feb-20 14:39 35.069780 -116.463723 47 21097ft 313kts
15-Feb-20 14:40 35.120903 -116.381409 36 20419ft 285kts
15-Feb-20 14:41 35.181562 -116.306362 39 18796ft 324kts
15-Feb-20 14:42 35.244388 -116.227652 40 17727ft 324kts
15-Feb-20 14:43 35.306981 -116.148940 40 17007ft 322kts
15-Feb-20 14:44 35.369183 -116.070584 40 15829ft 317kts
15-Feb-20 14:45 35.430483 -115.993160 41 15088ft 316kts
15-Feb-20 14:46 35.491098 -115.916418 41 14360ft 313kts
15-Feb-20 14:47 35.551243 -115.840100 41 13663ft 310kts
15-Feb-20 14:48 35.610842 -115.764302 41 13094ft 307kts
15-Feb-20 14:49 35.669828 -115.689084 41 13017ft 307kts
15-Feb-20 14:50 35.728845 -115.613657 41 13016ft 299kts
15-Feb-20 14:51 35.794732 -115.575247 359 13021ft 271kts
15-Feb-20 14:52 35.870142 -115.570626 358 13017ft 272kts
15-Feb-20 14:53 35.945835 -115.566283 358 13013ft 272kts
15-Feb-20 14:54 35.995147 -115.503213 68 13008ft 289kts
15-Feb-20 14:55 36.021926 -115.409759 65 13009ft 288kts
15-Feb-20 14:56 36.028048 -115.311934 93 13008ft 293kts
15-Feb-20 14:57 36.020556 -115.214268 93 12234ft 277kts
15-Feb-20 14:58 36.014292 -115.125012 91 10160ft 254kts
15-Feb-20 14:59 36.008907 -115.041537 89 9004ft 236kts
15-Feb-20 15:00 36.003985 -114.957658 89 8537ft 242kts
15-Feb-20 15:01 35.999101 -114.876191 89 7977ft 239kts
15-Feb-20 15:02 36.000629 -114.797520 44 6975ft 222kts
15-Feb-20 15:03 36.038915 -114.837050 290 6102ft 231kts
15-Feb-20 15:04 36.058939 -114.909500 290 4996ft 203kts
15-Feb-20 15:05 36.078888 -114.980339 290 4997ft 224kts
15-Feb-20 15:06 36.099874 -115.053149 290 5000ft 225kts
15-Feb-20 15:07 36.129324 -115.115443 357 4358ft 219kts
15-Feb-20 15:08 36.150380 -115.149743 182 3744ft 171kts
15-Feb-20 15:09 36.114003 -115.147776 215 2590ft 120kts
15-Feb-20 15:10 36.089960 -115.161969 202 2184ft 45kts
15-Feb-20 15:11 36.089477 -115.163756 293 2184ft 13kts
15-Feb-20 15:12 36.089779 -115.165826 227 2184ft 0kts
15-Feb-20 15:13 36.089779 -115.165826 227 2184ft 0kts
15-Feb-20 15:14 36.089779 -115.165827 231 2184ft 0kts

Navigation Log

Ident Type
Flight plan parsing failed, navigation log unavailable